Salona — J8B4719 — position and weather

sailwx.info

Track history (hours):
 
Tides and Currents Weather Stations Pressure Air Temp Water Temp Dewpoint Dewpoint Depression Visibility Wind Speed Wind Dir Waves Ship Positions

Salona

Last reported at 2015-Jan-16 21:28 UTC. Time now 2015-Jan-27 21:07 UTC.
Position N 36°45' E 014°22'.
Warning: this ship's position is 10 days out of date.

Length 70 m; draft 3.8 m.

Type: Cargo ship. MMSI: 376099000.

Date/timePositionNaut miles runAvg speedWind from/ knotsBaromVisibWave heightAir tempDewpointWater temp
2015-Jan-16 21:28N 36°45' E 014°22'7 7.4
2015-Jan-16 20:33N 36°48' E 014°14'7 7.3
2015-Jan-16 19:33N 36°52' E 014°06'7 7.0
2015-Jan-16 18:33N 36°55' E 013°58'7 7.0
2015-Jan-16 17:33N 36°58' E 013°51'8 0.2
2015-Jan-15 03:29N 37°03' E 013°43'6 7.0
2015-Jan-15 02:33N 36°58' E 013°48'7 6.5
2015-Jan-15 01:32N 36°52' E 013°52'20 6.8
2015-Jan-14 22:33N 36°35' E 014°05'46 4.5
2015-Jan-14 12:21N 35°53' E 014°31'0 0.0
2015-Jan-14 08:12N 35°53' E 014°31'0 0.0
2015-Jan-14 07:12N 35°53' E 014°31'1 0.3
2015-Jan-14 05:21N 35°54' E 014°31'4 3.3
2015-Jan-14 04:12N 35°57' E 014°31'3 4.2
2015-Jan-14 03:33N 35°56' E 014°34'6 5.4
2015-Jan-14 02:31N 36°01' E 014°38'5 5.1
2015-Jan-14 01:29N 36°05' E 014°42'5 5.0
2015-Jan-14 00:26N 36°09' E 014°46'5 5.4
2015-Jan-13 23:33N 36°13' E 014°50'6 5.4
2015-Jan-13 22:30N 36°17' E 014°54'243 6.7
2015-Jan-12 10:13N 39°34' E 017°55'  
Track history (hours):
 
Tides and Currents Weather Stations Pressure Air Temp Water Temp Dewpoint Dewpoint Depression Visibility Wind Speed Wind Dir Waves Ship Positions

Salona

Last reported at 2015-Jan-16 21:28 UTC. Time now 2015-Jan-27 21:07 UTC.
Position N 36°45' E 014°22'.
Warning: this ship's position is 10 days out of date.

Length 70 m; draft 3.8 m.

Type: Cargo ship. MMSI: 376099000.

Date/timePositionNaut miles runAvg speedWind from/ knotsBaromVisibWave heightAir tempDewpointWater temp
2015-Jan-16 21:28N 36°45' E 014°22'7 7.4
2015-Jan-16 20:33N 36°48' E 014°14'7 7.3
2015-Jan-16 19:33N 36°52' E 014°06'7 7.0
2015-Jan-16 18:33N 36°55' E 013°58'7 7.0
2015-Jan-16 17:33N 36°58' E 013°51'8 0.2
2015-Jan-15 03:29N 37°03' E 013°43'6 7.0
2015-Jan-15 02:33N 36°58' E 013°48'7 6.5
2015-Jan-15 01:32N 36°52' E 013°52'20 6.8
2015-Jan-14 22:33N 36°35' E 014°05'46 4.5
2015-Jan-14 12:21N 35°53' E 014°31'0 0.0
2015-Jan-14 08:12N 35°53' E 014°31'0 0.0
2015-Jan-14 07:12N 35°53' E 014°31'1 0.3
2015-Jan-14 05:21N 35°54' E 014°31'4 3.3
2015-Jan-14 04:12N 35°57' E 014°31'3 4.2
2015-Jan-14 03:33N 35°56' E 014°34'6 5.4
2015-Jan-14 02:31N 36°01' E 014°38'5 5.1
2015-Jan-14 01:29N 36°05' E 014°42'5 5.0
2015-Jan-14 00:26N 36°09' E 014°46'5 5.4
2015-Jan-13 23:33N 36°13' E 014°50'6 5.4
2015-Jan-13 22:30N 36°17' E 014°54'243 6.7
2015-Jan-12 10:13N 39°34' E 017°55'  

Dump ship's entire track history